Dublin, NC (28332)

6:13 PM EDT on August 27, 2015 (GMT -0400)
RAWS | | Change Station
CLOSE
Current Station
Personal Weather Station
Location: Elizabethtown, NC
Elevation: 100 ft
Nearby Weather Stations

Elev 100 ft 34.68 °N, 78.58 °W | Updated 55 minutes ago

Overcast
Overcast
77 °F
Feels Like 79 °F
N
5
Wind Variable Wind from ENE
Gusts 13.0 mph

Today
High -- | Low -- °F
--% Chance of Precip.
Yesterday
High -- | Low -- °F
Precip. -- in
6:44 AM 7:48 PM
Waxing Gibbous, 95% visible
Pressure 30.03 in
Visibility 10.0 miles
Clouds Scattered Clouds 2700 ft
Overcast 3800 ft
Heat Index 79 °F
Dew Point 68 °F
Humidity 75%
Rainfall in
Snow Depth Not available.
UV 0 out of 12
Pollen 7.20 out of 12
Air Quality Not available.
Flu Activity Not available.
SPECI KLBT 272210Z AUTO 03011G15KT 10SM SCT027 OVC038 26/19 A3003 RMK AO2 T02560194
Pressure 30.03 in
Visibility 10.0 miles
Clouds Scattered Clouds 2700 ft
Overcast 3800 ft
Heat Index 79 °F
Dew Point 68 °F
Humidity 75%
Rainfall in
Snow Depth Not available.
UV 0 out of 12
Pollen 7.20 out of 12
Air Quality Not available.
Flu Activity Not available.
SPECI KLBT 272210Z AUTO 03011G15KT 10SM SCT027 OVC038 26/19 A3003 RMK AO2 T02560194
Tropical Storm Erika remains unorganized as it travels through the northeast Caribbean Sea. The storm has already dumped 5-10 inches of rain on the Lesser Antilles, with more rain anticipated for Puerto Rico and Hispaniola. This will be much-needed rain for those islands. Erika is not forecast to reach hurricane strength until Monday when it curves northward along the east coast of Florida. Follow the live blog

10-Day Weather Forecast

×

Almanac

Astronomy

Aug. 27, 2015 Rise Set
Actual Time
Civil Twilight
Nautical Twilight
Astronomical Twilight
Moon
Length of Visible Light
Length of Day
Tomorrow will be .
, % of the Moon is Illuminated

Today's Extremes

State Highs State Lows

Community

WunderPhotos

Upload Photos

1,850,250 photos uploaded!

WunderBlogs® & News

Nearby

Air Quality

  Air Quality AQ Index Pollutant
Not available.

Snow Depth

Station Depth Elevation

Earthquake Activity

City Distance Mag. Time & Date
Minimum magnitude displayed is 2.5.

Coastal Water Temperatures

Place Temperature

Stations

Nearby Weather Stations

Station Location Temp. Windchill Dew Point Humidity Wind Precip. Elev Updated Type